Nearby METAR Reports

 

EGUW - Wattisham Raf, United Kingdom
Distance from station: SW 12mi, 19km
Updated: 22/09/2018 00:50
Clear
Clear
 Wind from WSW
Wind: WSW 9 mph , 15 km/h
Temperature: 9°C
Wind Chill: 7°C
Dew Point: 6°C
Humidity: 82%
Barometer: 1017 hPa
Clouds: Clear
Visibility: 6 miles , 10 km
2018/09/21 23:50 EGUW 212350Z AUTO 25008KT 9999 NCD 09/06 Q1017
EGUL - Lakenheath Raf, United Kingdom
Distance from station: WNW 29mi, 47km
Updated: 22/09/2018 00:56
Clear
Clear
 Wind from WSW
Wind: WSW 12 mph , 19 km/h
Temperature: 10°C
Wind Chill: 7°C
Dew Point: 6°C
Humidity: 76%
Barometer: 1015.9 hPa
Clouds: Clear
Visibility: 6 miles , 10 km
2018/09/21 23:56 EGUL 212356Z AUTO 24010KT 9999 CLR 10/06 A3000 RMK AO2 SLP162 60000 T01010064 10141 20098 401920098 52017 $
 
EGUN - Mildenhall Raf, United Kingdom
Distance from station: WNW 32mi, 51km
Updated: 22/09/2018 00:56
Clear
Clear
 Wind from WSW
Wind: WSW 12 mph , 19 km/h
Temperature: 10°C
Wind Chill: 7°C
Dew Point: 9°C
Humidity: 94%
Barometer: 1016.3 hPa
Clouds: Clear
Visibility: 6 miles , 10 km
2018/09/21 23:56 EGUN 212356Z AUTO 24010KT 9999 CLR 10/09 A3001 RMK AO2 SLP166 T01030094 10143 20096 401930096 52016
EGSH - Norwich Wea Cntr, United Kingdom
Distance from station: N 32mi, 52km
Updated: 22/09/2018 00:50
Clear
Clear
 Wind from WSW
Wind: WSW 14 mph , 22 km/h
Temperature: 10°C
Wind Chill: 7°C
Dew Point: 7°C
Humidity: 82%
Barometer: 1015 hPa
Clouds: Clear
Visibility: 6 miles , 10 km
2018/09/21 23:50 EGSH 212350Z AUTO 24012KT 9999 NCD 10/07 Q1015
 
EGYM - Marham Raf, United Kingdom
Distance from station: NW 39mi, 62km
Updated: 22/09/2018 00:50
Clear
Clear
 Wind from WSW
Wind: WSW 10 mph , 17 km/h
Temperature: 10°C
Wind Chill: 8°C
Dew Point: 7°C
Humidity: 82%
Barometer: 1016 hPa
Clouds: Clear
Visibility: 6 miles , 10 km
2018/09/21 23:50 EGYM 212350Z AUTO 25009KT 9999 NCD 10/07 Q1016
EGSC - Cambridge, United Kingdom
Distance from station: W 43mi, 69km
Updated: 21/09/2018 17:50
NOT Current
Few Clouds
Few Clouds
 Wind from W
Wind: W 20 mph , 31 km/h
Temperature: 15°C
Dew Point: 5°C
Humidity: 51%
Barometer: 1010 hPa
Clouds: Few Clouds
Visibility: 6 miles , 10 km
Cloud details: Few Clouds 1372 m
2018/09/21 16:50 EGSC 211650Z 27017KT 9999 FEW045 15/05 Q1010
 
EGSS - Stansted Airport, United Kingdom
Distance from station: WSW 47mi, 76km
Updated: 22/09/2018 00:50
Clear
Clear
 Wind from SW
Wind: SW 8 mph , 13 km/h
Temperature: 9°C
Wind Chill: 7°C
Dew Point: 7°C
Humidity: 87%
Barometer: 1017 hPa
Clouds: Clear
Visibility: 6 miles , 10 km
2018/09/21 23:50 EGSS 212350Z AUTO 23007KT 9999 NCD 09/07 Q1017
EGMC - Southend-On-Sea, United Kingdom
Distance from station: SSW 50mi, 80km
Updated: 22/09/2018 00:50
Clear
Clear
 Wind from SW
Wind: SW 12 mph , 19 km/h
Temperature: 12°C
Dew Point: 7°C
Humidity: 72%
Barometer: 1018 hPa
Summary: Clear
Visibility: greater than 7 miles , 10 km
2018/09/21 23:50 EGMC 212350Z 23010KT CAVOK 12/07 Q1018